createdAt,value
2017-06-09T00:01:47.693Z,5.40
2017-06-09T00:04:15.251Z,5.60
2017-06-09T00:06:42.789Z,5.93
2017-06-09T00:09:10.358Z,5.80
2017-06-09T00:11:37.895Z,6.30
2017-06-09T00:14:05.425Z,6.30
2017-06-09T00:16:33.018Z,5.90
2017-06-09T00:19:00.593Z,5.97
2017-06-09T00:21:28.126Z,5.80
2017-06-09T00:23:55.706Z,5.70
2017-06-09T00:26:23.252Z,6.47
2017-06-09T00:28:50.782Z,5.50
2017-06-09T00:31:18.353Z,6.33
2017-06-09T00:33:45.896Z,5.90
2017-06-09T00:36:13.458Z,5.90
2017-06-09T00:38:41.037Z,5.63
2017-06-09T00:41:08.578Z,5.90
2017-06-09T00:43:36.143Z,5.73
2017-06-09T00:46:03.730Z,6.00
2017-06-09T00:48:31.273Z,5.90
2017-06-09T00:50:58.825Z,5.80
2017-06-09T00:53:26.406Z,5.47
2017-06-09T00:55:53.934Z,4.90
2017-06-09T00:58:21.686Z,6.20
2017-06-09T01:00:49.433Z,5.87
2017-06-09T01:03:16.968Z,6.10
2017-06-09T01:05:44.516Z,5.50
2017-06-09T01:08:12.085Z,6.30
2017-06-09T01:10:39.635Z,6.10
2017-06-09T01:13:07.187Z,5.40
2017-06-09T01:15:34.783Z,5.00
2017-06-09T01:18:02.306Z,6.07
2017-06-09T01:20:29.875Z,5.37
2017-06-09T01:22:57.441Z,5.10
2017-06-09T01:25:24.973Z,5.83
2017-06-09T01:27:52.521Z,5.43
2017-06-09T01:30:20.271Z,5.33
2017-06-09T01:32:47.803Z,4.90
2017-06-09T01:35:15.346Z,4.80
2017-06-09T01:37:42.925Z,4.17
2017-06-09T01:40:10.519Z,4.97
2017-06-09T01:42:38.049Z,5.23
2017-06-09T01:45:05.668Z,5.37
2017-06-09T01:47:33.225Z,5.20
2017-06-09T01:50:00.778Z,4.47
2017-06-09T01:52:28.426Z,5.10
2017-06-09T01:54:56.009Z,4.90
2017-06-09T01:57:23.561Z,4.90
2017-06-09T01:59:51.126Z,5.00
2017-06-09T02:02:18.703Z,4.90
2017-06-09T02:04:46.237Z,4.77
2017-06-09T02:07:13.773Z,4.80
2017-06-09T02:09:41.374Z,4.87
2017-06-09T02:12:08.911Z,4.70
2017-06-09T02:14:36.453Z,4.50
2017-06-09T02:17:04.033Z,5.00
2017-06-09T02:19:31.562Z,4.10
2017-06-09T02:21:59.089Z,4.07
2017-06-09T02:24:26.657Z,4.70
2017-06-09T02:26:54.195Z,4.57
2017-06-09T02:29:21.731Z,5.03
2017-06-09T02:31:49.307Z,4.70
2017-06-09T02:34:17.295Z,4.47
2017-06-09T02:36:44.901Z,4.33
2017-06-09T02:39:13.538Z,4.63
2017-06-09T02:41:41.236Z,5.07
2017-06-09T02:44:08.782Z,4.20
2017-06-09T02:46:36.359Z,4.37
2017-06-09T02:49:03.932Z,4.57
2017-06-09T02:51:31.481Z,4.80
2017-06-09T02:53:59.066Z,4.80
2017-06-09T02:56:26.613Z,4.20
2017-06-09T02:58:54.228Z,4.30
2017-06-09T03:01:21.810Z,3.93
2017-06-09T03:03:49.354Z,4.83
2017-06-09T03:06:16.906Z,4.17
2017-06-09T03:08:44.473Z,4.27
2017-06-09T03:11:12.011Z,4.03
2017-06-09T03:13:39.551Z,4.60
2017-06-09T03:16:07.132Z,4.23
2017-06-09T03:18:35.033Z,4.40
2017-06-09T03:21:02.635Z,4.40
2017-06-09T03:23:30.202Z,4.13
2017-06-09T03:25:57.748Z,4.20
2017-06-09T03:28:25.290Z,3.63
2017-06-09T03:30:52.862Z,4.37
2017-06-09T03:33:20.391Z,4.40
2017-06-09T03:35:47.931Z,4.20
2017-06-09T03:38:15.502Z,3.90
2017-06-09T03:40:43.041Z,4.00
2017-06-09T03:43:10.592Z,4.30
2017-06-09T03:45:38.159Z,3.97
2017-06-09T03:48:05.701Z,3.83
2017-06-09T03:50:33.233Z,3.40
2017-06-09T03:53:00.793Z,4.20
2017-06-09T03:55:28.351Z,3.40
2017-06-09T03:57:55.890Z,4.47
2017-06-09T04:00:23.735Z,3.17
2017-06-09T04:02:51.276Z,4.27
2017-06-09T04:05:18.807Z,3.93
2017-06-09T04:07:46.385Z,3.80
2017-06-09T04:10:13.917Z,4.10
2017-06-09T04:12:41.444Z,4.20
2017-06-09T04:15:09.023Z,3.40
2017-06-09T04:17:36.563Z,4.70
2017-06-09T04:20:04.089Z,3.93
2017-06-09T04:22:31.650Z,4.70
2017-06-09T04:24:59.227Z,4.43
2017-06-09T04:27:26.759Z,6.80
2017-06-09T04:29:54.329Z,4.77
2017-06-09T04:32:21.895Z,9.73
2017-06-09T04:34:49.450Z,5.47
2017-06-09T04:37:16.983Z,4.50
2017-06-09T04:39:44.554Z,4.27
2017-06-09T04:42:12.091Z,5.50
2017-06-09T04:44:39.634Z,4.30
2017-06-09T04:47:07.207Z,4.67
2017-06-09T04:49:34.747Z,6.13
2017-06-09T04:52:02.303Z,5.13
2017-06-09T04:54:29.866Z,4.53
2017-06-09T04:56:57.425Z,4.90
2017-06-09T04:59:24.946Z,4.23
2017-06-09T05:01:52.518Z,5.47
2017-06-09T05:04:20.053Z,4.10
2017-06-09T05:06:47.585Z,4.40
2017-06-09T05:09:15.158Z,6.00
2017-06-09T05:11:42.699Z,4.20
2017-06-09T05:14:10.221Z,4.77
2017-06-09T05:16:37.789Z,4.50
2017-06-09T05:19:05.326Z,4.90
2017-06-09T05:21:32.866Z,3.77
2017-06-09T05:24:00.438Z,5.40
2017-06-09T05:26:27.996Z,4.50
2017-06-09T05:28:55.554Z,4.00
2017-06-09T05:31:26.975Z,4.50
2017-06-09T05:33:54.509Z,7.50
2017-06-09T05:36:22.038Z,6.73
2017-06-09T05:38:49.630Z,4.93
2017-06-09T05:41:17.161Z,4.70
2017-06-09T05:43:44.693Z,4.53
2017-06-09T05:46:12.254Z,5.57
2017-06-09T05:48:39.787Z,4.60
2017-06-09T05:51:07.317Z,4.57
2017-06-09T05:53:34.878Z,4.23
2017-06-09T05:56:02.414Z,4.60
2017-06-09T05:58:29.973Z,4.50
2017-06-09T06:00:57.826Z,4.30
2017-06-09T06:03:25.357Z,4.03
2017-06-09T06:05:52.895Z,3.97
2017-06-09T06:08:20.487Z,4.53
2017-06-09T06:10:48.024Z,3.77
2017-06-09T06:13:15.550Z,6.07
2017-06-09T06:15:43.117Z,4.50
2017-06-09T06:18:10.662Z,4.00
2017-06-09T06:20:38.189Z,4.33
2017-06-09T06:23:05.764Z,4.27
2017-06-09T06:25:33.294Z,3.73
2017-06-09T06:28:00.836Z,3.50
2017-06-09T06:30:28.411Z,5.20
2017-06-09T06:32:55.941Z,5.10
2017-06-09T06:35:23.473Z,3.83
2017-06-09T06:37:51.043Z,3.70
2017-06-09T06:40:18.582Z,4.37
2017-06-09T06:42:46.110Z,3.70
2017-06-09T06:45:13.702Z,3.97
2017-06-09T06:47:41.255Z,3.13
2017-06-09T06:50:08.789Z,4.40
2017-06-09T06:52:36.362Z,3.63
2017-06-09T06:55:03.921Z,2.80
2017-06-09T06:57:31.464Z,4.40
2017-06-09T06:59:59.043Z,3.50
2017-06-09T07:02:26.623Z,4.03
2017-06-09T07:04:54.153Z,3.40
2017-06-09T07:07:21.694Z,3.30
2017-06-09T07:09:49.285Z,3.90
2017-06-09T07:12:16.818Z,4.47
2017-06-09T07:14:44.372Z,3.37
2017-06-09T07:17:11.944Z,3.60
2017-06-09T07:19:39.487Z,3.60
2017-06-09T07:22:07.023Z,3.00
2017-06-09T07:24:34.595Z,3.63
2017-06-09T07:27:02.133Z,3.93
2017-06-09T07:29:29.667Z,3.43
2017-06-09T07:31:57.237Z,3.70
2017-06-09T07:34:24.797Z,4.27
2017-06-09T07:36:52.335Z,3.40
2017-06-09T07:39:19.898Z,3.43
2017-06-09T07:41:47.461Z,4.40
2017-06-09T07:44:14.994Z,3.73
2017-06-09T07:46:42.561Z,3.60
2017-06-09T07:49:10.097Z,3.73
2017-06-09T07:51:37.625Z,3.03
2017-06-09T07:54:05.209Z,4.17
2017-06-09T07:56:32.742Z,3.30
2017-06-09T07:59:00.275Z,3.00
2017-06-09T08:01:27.844Z,3.40
2017-06-09T08:03:55.371Z,3.13
2017-06-09T08:06:22.907Z,2.90
2017-06-09T08:08:50.474Z,4.17
2017-06-09T08:11:18.007Z,3.37
2017-06-09T08:13:45.569Z,3.53
2017-06-09T08:16:13.140Z,3.10
2017-06-09T08:18:40.670Z,3.30
2017-06-09T08:21:08.210Z,3.70
2017-06-09T08:23:35.776Z,3.30
2017-06-09T08:26:03.983Z,3.40
2017-06-09T08:28:31.518Z,3.27
2017-06-09T08:30:59.089Z,4.17
2017-06-09T08:33:26.614Z,3.90
2017-06-09T08:35:54.150Z,3.33
2017-06-09T08:38:21.721Z,3.07
2017-06-09T08:40:49.259Z,2.90
2017-06-09T08:43:16.785Z,3.60
2017-06-09T08:45:44.366Z,3.90
2017-06-09T08:48:11.895Z,3.43
2017-06-09T08:50:39.452Z,2.60
2017-06-09T08:53:07.028Z,3.10
2017-06-09T08:55:34.560Z,2.80
2017-06-09T08:58:02.091Z,2.50
2017-06-09T09:00:29.694Z,3.03
2017-06-09T09:02:57.235Z,2.80
2017-06-09T09:05:24.763Z,2.70
2017-06-09T09:07:52.350Z,2.60
2017-06-09T09:10:19.891Z,2.90
2017-06-09T09:12:47.421Z,2.53
2017-06-09T09:15:14.991Z,3.57
2017-06-09T09:17:42.513Z,2.60
2017-06-09T09:20:10.058Z,4.90
2017-06-09T09:22:37.629Z,3.90
2017-06-09T09:25:05.172Z,2.77
2017-06-09T09:27:32.738Z,3.23
2017-06-09T09:30:00.306Z,3.10
2017-06-09T09:32:27.889Z,2.73
2017-06-09T09:34:55.439Z,3.20
2017-06-09T09:37:22.991Z,3.70
2017-06-09T09:39:50.577Z,3.67
2017-06-09T09:42:18.111Z,2.60
2017-06-09T09:44:45.659Z,2.33
2017-06-09T09:47:13.230Z,2.60
2017-06-09T09:49:40.762Z,3.50
2017-06-09T09:52:08.304Z,3.80
2017-06-09T09:54:35.881Z,3.10
2017-06-09T09:57:03.406Z,2.73
2017-06-09T09:59:30.994Z,3.50
2017-06-09T10:01:58.567Z,4.07
2017-06-09T10:04:26.118Z,3.80
2017-06-09T10:06:53.653Z,3.77
2017-06-09T10:09:21.295Z,3.70
2017-06-09T10:11:48.828Z,4.07
2017-06-09T10:14:16.361Z,3.70
2017-06-09T10:16:43.924Z,3.60
2017-06-09T10:19:11.454Z,5.00
2017-06-09T10:21:38.995Z,4.17
2017-06-09T10:24:06.582Z,4.50
2017-06-09T10:26:34.115Z,3.97
2017-06-09T10:29:01.653Z,4.10
2017-06-09T10:31:29.217Z,4.67
2017-06-09T10:33:56.750Z,3.80
2017-06-09T10:36:24.302Z,5.00
2017-06-09T10:38:51.867Z,4.17
2017-06-09T10:41:19.399Z,4.00
2017-06-09T10:43:46.935Z,5.30
2017-06-09T10:46:14.511Z,4.00
2017-06-09T10:48:42.311Z,3.57
2017-06-09T10:51:09.839Z,4.10
2017-06-09T10:53:37.403Z,4.07
2017-06-09T10:56:04.945Z,4.73
2017-06-09T10:58:32.482Z,4.27
2017-06-09T11:01:00.077Z,3.60
2017-06-09T11:03:27.607Z,3.63
2017-06-09T11:05:55.137Z,2.90
2017-06-09T11:08:22.718Z,3.37
2017-06-09T11:10:50.282Z,3.93
2017-06-09T11:13:17.834Z,3.40
2017-06-09T11:15:45.452Z,3.33
2017-06-09T11:18:13.010Z,3.80
2017-06-09T11:20:40.544Z,2.50
2017-06-09T11:23:08.122Z,3.07
2017-06-09T11:25:35.682Z,2.63
2017-06-09T11:28:03.217Z,2.83
2017-06-09T11:30:30.890Z,4.27
2017-06-09T11:32:58.429Z,3.37
2017-06-09T11:35:26.001Z,4.17
2017-06-09T11:37:53.594Z,5.10
2017-06-09T11:40:21.387Z,3.23
2017-06-09T11:42:48.977Z,2.90
2017-06-09T11:45:16.593Z,3.47
2017-06-09T11:47:44.154Z,3.53
2017-06-09T11:50:11.710Z,3.17
2017-06-09T11:52:39.286Z,4.60
2017-06-09T11:55:06.843Z,3.70
2017-06-09T11:57:34.389Z,5.00
2017-06-09T12:00:02.004Z,3.97
2017-06-09T12:02:29.573Z,4.03
2017-06-09T12:04:57.098Z,3.40
2017-06-09T12:07:25.541Z,3.40
2017-06-09T12:09:53.127Z,3.27
2017-06-09T12:12:20.662Z,3.20
2017-06-09T12:14:48.205Z,3.20
2017-06-09T12:17:15.773Z,2.70
2017-06-09T12:19:43.599Z,2.53
2017-06-09T12:22:11.151Z,2.33
2017-06-09T12:24:38.721Z,1.90
2017-06-09T12:27:06.261Z,3.20
2017-06-09T12:29:35.381Z,2.07
2017-06-09T12:32:03.081Z,2.50
2017-06-09T12:34:30.619Z,2.30
2017-06-09T12:36:58.786Z,2.87
2017-06-09T12:39:26.347Z,3.10
2017-06-09T12:41:53.875Z,2.50
2017-06-09T12:44:21.406Z,2.20
2017-06-09T12:46:49.017Z,2.37
2017-06-09T12:49:16.555Z,2.40
2017-06-09T12:51:44.434Z,3.30
2017-06-09T12:54:12.001Z,2.97
2017-06-09T12:56:39.530Z,2.50
2017-06-09T12:59:07.069Z,2.00
2017-06-09T13:01:34.649Z,3.33
2017-06-09T13:04:02.218Z,2.07
2017-06-09T13:06:29.789Z,2.90
2017-06-09T13:08:57.466Z,2.70
2017-06-09T13:11:25.088Z,4.43
2017-06-09T13:13:52.643Z,2.67
2017-06-09T13:16:20.225Z,2.40
2017-06-09T13:18:47.773Z,1.70
2017-06-09T13:21:16.041Z,2.57
2017-06-09T13:23:43.638Z,2.40
2017-06-09T13:26:11.697Z,2.33
2017-06-09T13:28:39.701Z,3.03
2017-06-09T13:31:07.805Z,2.87
2017-06-09T13:33:35.353Z,3.33
2017-06-09T13:36:02.887Z,5.97
2017-06-09T13:38:30.494Z,2.60
2017-06-09T13:40:58.383Z,2.83
2017-06-09T13:43:25.932Z,2.87
2017-06-09T13:45:53.511Z,3.20
2017-06-09T13:48:21.058Z,2.67
2017-06-09T13:50:48.813Z,2.47
2017-06-09T13:53:17.182Z,2.90
2017-06-09T13:55:44.709Z,2.50
2017-06-09T13:58:12.418Z,2.50
2017-06-09T14:00:40.090Z,2.57
2017-06-09T14:03:08.217Z,3.10
2017-06-09T14:05:36.422Z,3.47
2017-06-09T14:08:04.413Z,3.10
2017-06-09T14:10:32.281Z,2.70
2017-06-09T14:13:00.459Z,2.57
2017-06-09T14:15:28.056Z,3.00
2017-06-09T14:17:55.877Z,2.70
2017-06-09T14:20:23.638Z,3.73
2017-06-09T14:22:51.213Z,3.90
2017-06-09T14:25:19.290Z,3.67
2017-06-09T14:27:46.850Z,3.33
2017-06-09T14:30:14.436Z,2.97
2017-06-09T14:32:41.962Z,3.00
2017-06-09T14:35:09.604Z,3.13
2017-06-09T14:37:37.179Z,3.73
2017-06-09T14:40:04.735Z,3.20
2017-06-09T14:42:32.270Z,3.10
2017-06-09T14:45:00.274Z,2.80
2017-06-09T14:47:27.820Z,2.50
2017-06-09T14:49:55.382Z,2.83
2017-06-09T14:52:22.966Z,3.27
2017-06-09T14:54:50.514Z,2.63
2017-06-09T14:57:18.279Z,2.90
2017-06-09T14:59:45.873Z,3.00
2017-06-09T15:02:13.436Z,3.00
2017-06-09T15:04:40.995Z,3.20
2017-06-09T15:07:08.572Z,3.43
2017-06-09T15:09:36.155Z,4.03
2017-06-09T15:12:04.244Z,5.37
2017-06-09T15:14:31.793Z,4.07
2017-06-09T15:16:59.774Z,5.03
2017-06-09T15:19:27.834Z,4.90
2017-06-09T15:21:55.381Z,3.50
2017-06-09T15:24:22.966Z,3.43
2017-06-09T15:26:50.624Z,8.43
2017-06-09T15:29:18.160Z,3.40
2017-06-09T15:31:45.761Z,4.10
2017-06-09T15:34:13.290Z,3.97
2017-06-09T15:36:40.814Z,4.50
2017-06-09T15:39:08.387Z,4.40
2017-06-09T15:41:35.965Z,4.10
2017-06-09T15:44:03.786Z,5.03
2017-06-09T15:46:31.376Z,4.80
2017-06-09T15:48:58.913Z,4.23
2017-06-09T15:51:26.441Z,4.10
2017-06-09T15:53:54.424Z,4.87
2017-06-09T15:56:22.335Z,4.97
2017-06-09T15:58:50.361Z,4.90
2017-06-09T16:01:17.979Z,5.70
2017-06-09T16:03:45.534Z,6.10
2017-06-09T16:06:13.074Z,5.23
2017-06-09T16:08:40.638Z,3.77
2017-06-09T16:11:08.172Z,4.40
2017-06-09T16:13:35.710Z,3.90
2017-06-09T16:16:04.001Z,3.83
2017-06-09T16:18:31.536Z,4.50
2017-06-09T16:20:59.078Z,4.20
2017-06-09T16:23:27.219Z,4.13
2017-06-09T16:25:54.769Z,5.13
2017-06-09T16:28:22.546Z,5.20
2017-06-09T16:30:50.126Z,6.47
2017-06-09T16:33:17.690Z,4.53
2017-06-09T16:35:45.226Z,4.70
2017-06-09T16:38:13.673Z,5.00
2017-06-09T16:40:41.218Z,6.40
2017-06-09T16:43:08.982Z,4.60
2017-06-09T16:45:36.594Z,5.17
2017-06-09T16:48:04.670Z,4.73
2017-06-09T16:50:32.755Z,4.97
2017-06-09T16:53:00.325Z,5.07
2017-06-09T16:55:28.121Z,4.33
2017-06-09T16:57:55.645Z,4.40
2017-06-09T17:00:23.325Z,3.63
2017-06-09T17:02:51.250Z,3.47
2017-06-09T17:05:19.123Z,4.00
2017-06-09T17:07:46.704Z,4.27
2017-06-09T17:10:14.514Z,3.47
2017-06-09T17:12:42.051Z,3.90
2017-06-09T17:15:09.626Z,4.83
2017-06-09T17:17:37.159Z,3.50
2017-06-09T17:20:04.698Z,2.60
2017-06-09T17:22:32.273Z,2.90
2017-06-09T17:24:59.807Z,2.20
2017-06-09T17:27:27.575Z,2.30
2017-06-09T17:29:55.139Z,2.50
2017-06-09T17:32:22.939Z,2.97
2017-06-09T17:34:50.470Z,3.13
2017-06-09T17:37:18.008Z,3.40
2017-06-09T17:39:45.585Z,2.70
2017-06-09T17:42:13.534Z,2.73
2017-06-09T17:44:41.065Z,3.70
2017-06-09T17:47:08.659Z,3.40
2017-06-09T17:49:36.425Z,3.37
2017-06-09T17:52:03.986Z,2.80
2017-06-09T17:54:31.575Z,2.53
2017-06-09T17:56:59.115Z,2.83
2017-06-09T17:59:26.645Z,2.97
2017-06-09T18:01:54.221Z,2.80
2017-06-09T18:04:22.390Z,3.00
2017-06-09T18:06:49.929Z,3.40
2017-06-09T18:09:17.512Z,3.33
2017-06-09T18:11:45.046Z,2.63
2017-06-09T18:14:12.581Z,2.90
2017-06-09T18:16:40.171Z,2.30
2017-06-09T18:19:07.738Z,2.33
2017-06-09T18:21:35.273Z,2.60
2017-06-09T18:24:02.926Z,2.67
2017-06-09T18:26:30.689Z,2.60
2017-06-09T18:28:58.230Z,2.90
2017-06-09T18:31:26.124Z,2.03
2017-06-09T18:33:53.895Z,2.63
2017-06-09T18:36:21.449Z,2.57
2017-06-09T18:38:49.013Z,3.20
2017-06-09T18:41:16.550Z,3.00
2017-06-09T18:43:44.081Z,3.33
2017-06-09T18:46:11.657Z,2.90
2017-06-09T18:48:39.211Z,3.10
2017-06-09T18:51:07.147Z,2.90
2017-06-09T18:53:34.751Z,3.13
2017-06-09T18:56:02.323Z,3.63
2017-06-09T18:58:29.855Z,3.53
2017-06-09T19:00:57.430Z,3.50
2017-06-09T19:03:24.962Z,4.90
2017-06-09T19:05:52.524Z,4.00
2017-06-09T19:08:20.109Z,4.13
2017-06-09T19:10:47.729Z,3.60
2017-06-09T19:13:15.281Z,4.37
2017-06-09T19:15:42.873Z,4.90
2017-06-09T19:18:10.419Z,4.17
2017-06-09T19:20:37.953Z,4.77
2017-06-09T19:23:05.527Z,5.10
2017-06-09T19:25:33.061Z,5.60
2017-06-09T19:28:00.610Z,6.83
2017-06-09T19:30:28.322Z,5.30
2017-06-09T19:32:55.845Z,5.50
2017-06-09T19:35:23.385Z,5.43
2017-06-09T19:37:50.966Z,5.57
2017-06-09T19:40:18.502Z,5.40
2017-06-09T19:42:46.039Z,6.37
2017-06-09T19:45:13.606Z,3.30
2017-06-09T19:47:41.580Z,5.30
2017-06-09T19:50:09.122Z,4.70
2017-06-09T19:52:36.697Z,6.40
2017-06-09T19:55:04.461Z,6.10
2017-06-09T19:57:32.007Z,7.17
2017-06-09T19:59:59.574Z,7.00
2017-06-09T20:02:27.185Z,7.37
2017-06-09T20:04:54.723Z,7.60
2017-06-09T20:07:22.267Z,6.37
2017-06-09T20:09:49.855Z,6.83
2017-06-09T20:12:17.398Z,6.63
2017-06-09T20:14:44.939Z,8.93
2017-06-09T20:17:12.541Z,9.20
2017-06-09T20:19:40.085Z,10.93
2017-06-09T20:22:07.925Z,11.70
2017-06-09T20:24:35.507Z,13.27
2017-06-09T20:27:03.050Z,13.30
2017-06-09T20:29:30.806Z,9.70
2017-06-09T20:31:58.387Z,9.20
2017-06-09T20:34:25.934Z,7.97
2017-06-09T20:36:53.474Z,8.87
2017-06-09T20:39:21.822Z,8.07
2017-06-09T20:41:49.466Z,6.60
2017-06-09T20:44:17.029Z,5.80
2017-06-09T20:46:44.597Z,5.67
2017-06-09T20:49:12.136Z,7.80
2017-06-09T20:51:39.681Z,10.43
2017-06-09T20:54:07.250Z,7.93
2017-06-09T20:56:34.793Z,8.57
2017-06-09T20:59:02.333Z,7.33
2017-06-09T21:01:29.933Z,6.43
2017-06-09T21:03:57.491Z,5.30
2017-06-09T21:06:25.085Z,5.40
2017-06-09T21:08:52.695Z,4.70
2017-06-09T21:11:20.250Z,5.10
2017-06-09T21:13:47.788Z,5.03
2017-06-09T21:16:15.381Z,4.57
2017-06-09T21:18:42.910Z,4.60
2017-06-09T21:21:10.441Z,4.97
2017-06-09T21:23:38.109Z,4.30
2017-06-09T21:26:05.664Z,4.23
2017-06-09T21:28:33.206Z,4.10
2017-06-09T21:31:00.794Z,3.40
2017-06-09T21:33:28.334Z,3.23
2017-06-09T21:35:55.866Z,3.33
2017-06-09T21:38:23.517Z,3.40
2017-06-09T21:40:51.050Z,3.53
2017-06-09T21:43:18.587Z,3.43
2017-06-09T21:45:46.145Z,3.23
2017-06-09T21:48:13.666Z,3.63
2017-06-09T21:50:41.193Z,3.70
2017-06-09T21:53:08.773Z,3.63
2017-06-09T21:55:36.306Z,3.50
2017-06-09T21:58:03.843Z,3.40
2017-06-09T22:00:31.550Z,3.87
2017-06-09T22:02:59.095Z,3.60
2017-06-09T22:05:26.631Z,3.50
2017-06-09T22:07:54.282Z,4.07
2017-06-09T22:10:21.822Z,4.33
2017-06-09T22:12:49.358Z,4.20
2017-06-09T22:15:16.934Z,4.00
2017-06-09T22:17:44.469Z,4.30
2017-06-09T22:20:12.011Z,4.37
2017-06-09T22:22:39.603Z,5.13
2017-06-09T22:25:07.154Z,3.80
2017-06-09T22:27:34.692Z,8.67
2017-06-09T22:30:02.294Z,5.27
2017-06-09T22:32:29.867Z,4.83
2017-06-09T22:34:57.690Z,4.50
2017-06-09T22:37:25.233Z,4.80
2017-06-09T22:39:52.818Z,5.33
2017-06-09T22:42:20.367Z,4.40
2017-06-09T22:44:47.901Z,4.40
2017-06-09T22:47:15.464Z,3.80
2017-06-09T22:49:42.996Z,3.60
2017-06-09T22:52:10.532Z,3.50
2017-06-09T22:54:38.113Z,4.00
2017-06-09T22:57:06.163Z,3.40
2017-06-09T22:59:33.697Z,3.40
2017-06-09T23:02:01.273Z,3.50
2017-06-09T23:04:28.798Z,3.10
2017-06-09T23:06:56.659Z,3.83
2017-06-09T23:09:24.709Z,3.37
2017-06-09T23:11:52.242Z,3.47
2017-06-09T23:14:19.931Z,2.97
2017-06-09T23:16:47.633Z,3.43
2017-06-09T23:19:15.306Z,3.33
2017-06-09T23:21:42.843Z,3.30
2017-06-09T23:24:10.707Z,3.43
2017-06-09T23:26:43.729Z,3.37
2017-06-09T23:29:11.471Z,3.40
2017-06-09T23:31:41.875Z,2.97
2017-06-09T23:34:09.850Z,3.17
2017-06-09T23:36:37.436Z,3.20
2017-06-09T23:39:05.518Z,2.70
2017-06-09T23:41:33.062Z,3.10
2017-06-09T23:44:00.600Z,3.40
2017-06-09T23:46:28.173Z,3.00
2017-06-09T23:48:56.027Z,3.60
2017-06-09T23:51:23.572Z,3.33
2017-06-09T23:53:51.157Z,3.30
2017-06-09T23:56:18.905Z,3.07
2017-06-09T23:58:46.497Z,2.83
